createdAt,value
2023-11-18T00:00:18.562Z,6.37
2023-11-18T00:03:22.487Z,7.77
2023-11-18T00:06:26.294Z,8.27
2023-11-18T00:09:31.314Z,8.40
2023-11-18T00:12:36.250Z,7.77
2023-11-18T00:15:39.914Z,8.83
2023-11-18T00:18:44.013Z,8.50
2023-11-18T00:21:47.685Z,7.27
2023-11-18T00:24:53.431Z,7.73
2023-11-18T00:27:57.062Z,8.63
2023-11-18T00:31:00.902Z,8.87
2023-11-18T00:34:04.653Z,7.87
2023-11-18T00:37:09.288Z,8.20
2023-11-18T00:40:14.450Z,8.50
2023-11-18T00:43:18.173Z,8.53
2023-11-18T00:46:21.798Z,9.90
2023-11-18T00:49:27.214Z,7.97
2023-11-18T00:52:30.909Z,7.57
2023-11-18T00:55:36.068Z,9.37
2023-11-18T00:58:41.515Z,9.40
2023-11-18T01:01:45.564Z,8.77
2023-11-18T01:04:49.358Z,7.57
2023-11-18T01:07:53.056Z,8.37
2023-11-18T01:10:58.100Z,9.53
2023-11-18T01:14:01.937Z,9.10
2023-11-18T01:17:06.641Z,8.03
2023-11-18T01:20:12.108Z,8.50
2023-11-18T01:23:16.025Z,8.80
2023-11-18T01:26:21.660Z,8.20
2023-11-18T01:29:25.568Z,8.73
2023-11-18T01:32:31.019Z,7.97
2023-11-18T01:35:34.768Z,9.50
2023-11-18T01:38:38.818Z,9.80
2023-11-18T01:41:44.264Z,9.03
2023-11-18T01:44:48.603Z,8.90
2023-11-18T01:47:53.220Z,8.57
2023-11-18T01:51:00.368Z,9.20
2023-11-18T01:54:06.635Z,8.23
2023-11-18T01:57:12.311Z,8.83
2023-11-18T02:00:19.108Z,7.73
2023-11-18T02:03:23.769Z,7.60
2023-11-18T02:06:28.114Z,6.80
2023-11-18T02:09:32.337Z,7.33
2023-11-18T02:12:49.799Z,6.13
2023-11-18T02:15:58.294Z,5.93
2023-11-18T02:19:04.138Z,5.37
2023-11-18T02:22:10.576Z,6.53
2023-11-18T02:25:19.286Z,5.77
2023-11-18T02:28:24.853Z,6.10
2023-11-18T02:31:38.741Z,5.50
2023-11-18T02:34:52.725Z,5.13
2023-11-18T02:37:57.863Z,5.40
2023-11-18T02:41:08.139Z,4.93
2023-11-18T02:44:18.617Z,5.77
2023-11-18T02:47:23.103Z,5.37
2023-11-18T02:50:28.548Z,5.23
2023-11-18T02:53:34.482Z,8.70
2023-11-18T02:56:38.149Z,7.70
2023-11-18T02:59:43.236Z,6.20
2023-11-18T03:02:48.267Z,8.50
2023-11-18T03:05:51.979Z,6.17
2023-11-18T03:08:55.658Z,5.80
2023-11-18T03:12:00.660Z,7.13
2023-11-18T03:15:10.362Z,8.47
2023-11-18T03:18:14.131Z,6.70
2023-11-18T03:21:18.001Z,6.33
2023-11-18T03:24:21.879Z,5.33
2023-11-18T03:27:25.744Z,5.27
2023-11-18T03:30:31.168Z,6.43
2023-11-18T03:33:35.929Z,6.40
2023-11-18T03:36:39.614Z,5.20
2023-11-18T03:39:43.357Z,6.17
2023-11-18T03:42:47.658Z,5.10
2023-11-18T03:45:53.521Z,5.97
2023-11-18T03:48:57.247Z,5.80
2023-11-18T03:52:00.930Z,5.97
2023-11-18T03:55:06.276Z,5.77
2023-11-18T03:58:10.342Z,5.47
2023-11-18T04:01:22.857Z,5.90
2023-11-18T04:04:26.538Z,6.07
2023-11-18T04:07:30.944Z,5.47
2023-11-18T04:10:34.615Z,5.23
2023-11-18T04:13:38.370Z,6.00
2023-11-18T04:16:43.447Z,6.57
2023-11-18T04:19:48.134Z,6.73
2023-11-18T04:22:51.940Z,5.90
2023-11-18T04:25:55.737Z,6.80
2023-11-18T04:28:59.574Z,6.97
2023-11-18T04:32:04.788Z,6.40
2023-11-18T04:35:11.220Z,6.30
2023-11-18T04:38:15.062Z,6.80
2023-11-18T04:41:18.631Z,7.10
2023-11-18T04:44:22.532Z,6.47
2023-11-18T04:47:28.213Z,6.80
2023-11-18T04:50:33.198Z,6.37
2023-11-18T04:53:36.836Z,6.13
2023-11-18T04:56:40.490Z,6.03
2023-11-18T04:59:45.056Z,6.67
2023-11-18T05:02:50.650Z,6.50
2023-11-18T05:05:57.741Z,7.13
2023-11-18T05:09:02.542Z,6.50
2023-11-18T05:12:08.062Z,7.10
2023-11-18T05:15:12.085Z,7.40
2023-11-18T05:18:17.991Z,6.87
2023-11-18T05:21:22.812Z,7.50
2023-11-18T05:24:26.546Z,8.10
2023-11-18T05:27:30.448Z,8.00
2023-11-18T05:30:34.307Z,8.70
2023-11-18T05:33:39.373Z,7.13
2023-11-18T05:36:43.088Z,9.23
2023-11-18T05:39:46.751Z,8.67
2023-11-18T05:42:53.130Z,8.20
2023-11-18T05:46:12.730Z,8.37
2023-11-18T05:49:17.784Z,9.20
2023-11-18T05:52:22.167Z,9.73
2023-11-18T05:55:25.950Z,9.70
2023-11-18T05:58:29.981Z,10.97
2023-11-18T06:01:33.771Z,11.17
2023-11-18T06:04:39.523Z,12.23
2023-11-18T06:07:44.577Z,12.37
2023-11-18T06:10:48.364Z,12.83
2023-11-18T06:13:53.936Z,14.33
2023-11-18T06:16:57.729Z,13.03
2023-11-18T06:20:02.866Z,13.67
2023-11-18T06:23:07.944Z,14.50
2023-11-18T06:26:12.368Z,16.27
2023-11-18T06:29:16.821Z,14.97
2023-11-18T06:32:20.579Z,15.77
2023-11-18T06:35:26.149Z,15.07
2023-11-18T06:38:31.616Z,15.77
2023-11-18T06:41:38.067Z,15.87
2023-11-18T06:44:41.794Z,18.43
2023-11-18T06:47:46.731Z,17.97
2023-11-18T06:50:52.169Z,16.33
2023-11-18T06:53:57.315Z,17.77
2023-11-18T06:57:00.980Z,17.27
2023-11-18T07:00:09.620Z,17.13
2023-11-18T07:03:13.440Z,17.43
2023-11-18T07:06:23.856Z,19.47
2023-11-18T07:09:27.642Z,19.43
2023-11-18T07:12:31.360Z,19.33
2023-11-18T07:15:34.972Z,18.97
2023-11-18T07:18:41.624Z,19.40
2023-11-18T07:21:48.051Z,20.83
2023-11-18T07:24:52.687Z,20.40
2023-11-18T07:27:57.315Z,20.33
2023-11-18T07:31:01.286Z,21.33
2023-11-18T07:34:07.145Z,20.50
2023-11-18T07:37:14.078Z,22.73
2023-11-18T07:40:23.628Z,22.47
2023-11-18T07:43:30.007Z,20.33
2023-11-18T07:46:33.688Z,20.87
2023-11-18T07:49:37.691Z,22.63
2023-11-18T07:52:43.033Z,22.90
2023-11-18T07:55:49.045Z,19.83
2023-11-18T07:58:53.835Z,20.30
2023-11-18T08:01:57.958Z,21.93
2023-11-18T08:05:01.744Z,20.83
2023-11-18T08:08:07.137Z,21.63
2023-11-18T08:11:14.339Z,23.13
2023-11-18T08:14:18.688Z,22.80
2023-11-18T08:17:22.477Z,26.70
2023-11-18T08:20:26.809Z,23.20
2023-11-18T08:23:32.856Z,23.73
2023-11-18T08:26:36.972Z,25.10
2023-11-18T08:29:40.543Z,24.83
2023-11-18T08:32:46.125Z,27.37
2023-11-18T08:35:51.894Z,25.43
2023-11-18T08:38:57.730Z,25.03
2023-11-18T08:42:01.394Z,23.93
2023-11-18T08:45:09.551Z,25.10
2023-11-18T08:48:14.114Z,25.37
2023-11-18T08:51:18.788Z,24.90
2023-11-18T08:54:37.451Z,27.33
2023-11-18T08:57:53.900Z,23.47
2023-11-18T09:01:07.624Z,21.70
2023-11-18T09:04:11.772Z,19.80
2023-11-18T09:07:16.424Z,22.60
2023-11-18T09:10:22.360Z,20.83
2023-11-18T09:13:30.019Z,23.03
2023-11-18T09:16:39.650Z,22.03
2023-11-18T09:19:43.245Z,22.13
2023-11-18T09:22:47.094Z,23.00
2023-11-18T09:25:53.419Z,24.37
2023-11-18T09:28:57.814Z,24.50
2023-11-18T09:32:05.690Z,23.57
2023-11-18T09:35:13.663Z,23.70
2023-11-18T09:38:17.743Z,26.33
2023-11-18T09:41:28.498Z,26.00
2023-11-18T09:44:33.481Z,24.40
2023-11-18T09:47:43.299Z,23.30
2023-11-18T09:50:49.973Z,24.73
2023-11-18T09:53:55.816Z,27.50
2023-11-18T09:57:11.103Z,24.53
2023-11-18T10:00:22.687Z,26.03
2023-11-18T10:03:27.243Z,24.27
2023-11-18T10:06:35.170Z,24.07
2023-11-18T10:09:40.673Z,25.93
2023-11-18T10:12:52.965Z,25.87
2023-11-18T10:15:58.744Z,25.70
2023-11-18T10:19:09.917Z,24.93
2023-11-18T10:22:26.540Z,24.80
2023-11-18T10:25:30.799Z,24.60
2023-11-18T10:28:39.032Z,24.67
2023-11-18T10:31:46.546Z,25.33
2023-11-18T10:34:51.792Z,25.37
2023-11-18T10:37:55.538Z,25.67
2023-11-18T10:41:02.222Z,24.77
2023-11-18T10:44:15.997Z,24.47
2023-11-18T10:47:21.819Z,25.77
2023-11-18T10:50:33.159Z,23.57
2023-11-18T10:53:38.534Z,25.47
2023-11-18T10:56:50.328Z,24.97
2023-11-18T11:00:14.678Z,25.33
2023-11-18T11:03:19.634Z,22.90
2023-11-18T11:06:25.432Z,23.80
2023-11-18T11:09:29.791Z,25.90
2023-11-18T11:12:53.216Z,25.43
2023-11-18T11:16:03.182Z,24.97
2023-11-18T11:19:10.145Z,25.33
2023-11-18T11:22:22.158Z,25.87
2023-11-18T11:25:36.549Z,25.00
2023-11-18T11:28:47.950Z,23.23
2023-11-18T11:32:13.805Z,24.13
2023-11-18T11:35:26.160Z,23.50
2023-11-18T11:38:30.253Z,25.83
2023-11-18T11:41:35.583Z,24.23
2023-11-18T11:44:43.655Z,25.00
2023-11-18T11:47:52.453Z,23.20
2023-11-18T11:51:16.254Z,22.37
2023-11-18T11:54:30.242Z,22.23
2023-11-18T11:57:40.294Z,24.27
2023-11-18T12:00:44.537Z,23.40
2023-11-18T12:03:51.132Z,22.70
2023-11-18T12:07:05.824Z,23.20
2023-11-18T12:10:22.173Z,21.67
2023-11-18T12:13:27.669Z,22.53
2023-11-18T12:17:08.753Z,19.97
2023-11-18T12:20:43.466Z,20.03
2023-11-18T12:24:20.413Z,20.70
2023-11-18T12:27:52.729Z,18.23
2023-11-18T12:31:07.441Z,21.10
2023-11-18T12:34:12.245Z,19.97
2023-11-18T12:37:55.262Z,17.30
2023-11-18T12:41:01.200Z,18.70
2023-11-18T12:44:33.002Z,17.40
2023-11-18T12:47:42.468Z,19.93
2023-11-18T12:50:48.243Z,19.30
2023-11-18T12:53:54.975Z,17.37
2023-11-18T12:56:59.101Z,17.30
2023-11-18T13:00:05.643Z,19.67
2023-11-18T13:03:11.958Z,17.67
2023-11-18T13:06:16.260Z,19.30
2023-11-18T13:09:27.569Z,16.83
2023-11-18T13:12:31.453Z,19.20
2023-11-18T13:15:38.667Z,17.50
2023-11-18T13:18:50.357Z,18.33
2023-11-18T13:21:56.021Z,17.63
2023-11-18T13:25:01.132Z,17.27
2023-11-18T13:28:07.458Z,17.23
2023-11-18T13:31:11.458Z,16.93
2023-11-18T13:34:15.311Z,20.37
2023-11-18T13:37:23.782Z,18.37
2023-11-18T13:40:31.124Z,17.13
2023-11-18T13:43:45.292Z,16.77
2023-11-18T13:46:51.240Z,17.13
2023-11-18T13:49:59.705Z,18.57
2023-11-18T13:53:04.548Z,17.90
2023-11-18T13:56:11.114Z,18.27
2023-11-18T13:59:15.550Z,18.43
2023-11-18T14:02:20.158Z,17.73
2023-11-18T14:05:25.742Z,17.43
2023-11-18T14:08:29.511Z,17.77
2023-11-18T14:11:35.744Z,18.40
2023-11-18T14:14:39.604Z,18.40
2023-11-18T14:17:46.132Z,16.63
2023-11-18T14:20:51.253Z,14.67
2023-11-18T14:23:57.381Z,15.63
2023-11-18T14:27:02.435Z,15.40
2023-11-18T14:30:09.472Z,15.47
2023-11-18T14:33:13.233Z,15.73
2023-11-18T14:36:17.128Z,16.37
2023-11-18T14:39:24.090Z,16.33
2023-11-18T14:42:29.355Z,14.50
2023-11-18T14:45:50.087Z,12.77
2023-11-18T14:48:53.821Z,13.23
2023-11-18T14:51:57.949Z,13.93
2023-11-18T14:55:01.945Z,13.07
2023-11-18T14:58:08.254Z,12.57
2023-11-18T15:01:13.496Z,10.50
2023-11-18T15:04:17.249Z,10.43
2023-11-18T15:07:20.867Z,10.90
2023-11-18T15:10:26.768Z,11.47
2023-11-18T15:13:31.741Z,10.30
2023-11-18T15:16:35.513Z,9.37
2023-11-18T15:19:39.569Z,8.77
2023-11-18T15:22:45.491Z,10.20
2023-11-18T15:25:51.185Z,9.73
2023-11-18T15:28:58.147Z,9.70
2023-11-18T15:32:01.933Z,8.70
2023-11-18T15:35:09.957Z,8.80
2023-11-18T15:38:18.797Z,8.10
2023-11-18T15:41:23.624Z,8.43
2023-11-18T15:44:29.705Z,9.37
2023-11-18T15:47:33.525Z,10.27
2023-11-18T15:50:39.122Z,7.60
2023-11-18T15:53:42.908Z,9.87
2023-11-18T15:56:47.003Z,8.30
2023-11-18T15:59:52.140Z,9.00
2023-11-18T16:03:01.876Z,8.53
2023-11-18T16:06:07.972Z,9.17
2023-11-18T16:09:11.667Z,9.77
2023-11-18T16:12:15.748Z,9.43
2023-11-18T16:15:21.863Z,8.80
2023-11-18T16:18:25.611Z,9.53
2023-11-18T16:21:29.332Z,8.90
2023-11-18T16:24:33.002Z,9.87
2023-11-18T16:27:36.714Z,8.97
2023-11-18T16:30:41.804Z,9.83
2023-11-18T16:33:46.659Z,9.93
2023-11-18T16:36:50.726Z,8.70
2023-11-18T16:39:55.000Z,11.67
2023-11-18T16:43:01.255Z,8.80
2023-11-18T16:46:07.609Z,9.70
2023-11-18T16:49:13.674Z,10.10
2023-11-18T16:52:17.743Z,7.87
2023-11-18T16:55:22.506Z,9.30
2023-11-18T16:58:26.489Z,10.77
2023-11-18T17:01:31.685Z,13.13
2023-11-18T17:04:38.205Z,10.30
2023-11-18T17:07:42.268Z,9.40
2023-11-18T17:10:52.997Z,10.97
2023-11-18T17:13:56.671Z,16.97
2023-11-18T17:17:02.086Z,8.97
2023-11-18T17:20:10.662Z,9.43
2023-11-18T17:23:14.403Z,9.30
2023-11-18T17:26:18.226Z,8.83
2023-11-18T17:29:22.145Z,10.00
2023-11-18T17:32:27.497Z,9.03
2023-11-18T17:35:31.863Z,8.33
2023-11-18T17:38:37.038Z,12.43
2023-11-18T17:41:40.651Z,22.27
2023-11-18T17:44:44.386Z,13.93
2023-11-18T17:47:49.567Z,9.13
2023-11-18T17:50:54.803Z,9.33
2023-11-18T17:53:58.529Z,7.73
2023-11-18T17:57:02.250Z,7.23
2023-11-18T18:00:13.204Z,8.43
2023-11-18T18:03:18.621Z,8.13
2023-11-18T18:06:22.395Z,7.23
2023-11-18T18:09:28.679Z,9.07
2023-11-18T18:12:33.245Z,8.00
2023-11-18T18:15:39.444Z,7.27
2023-11-18T18:18:44.562Z,8.50
2023-11-18T18:21:48.245Z,8.13
2023-11-18T18:24:51.883Z,7.50
2023-11-18T18:27:55.554Z,7.50
2023-11-18T18:30:59.285Z,8.10
2023-11-18T18:34:04.804Z,7.83
2023-11-18T18:37:08.900Z,9.30
2023-11-18T18:40:15.771Z,11.53
2023-11-18T18:43:19.433Z,8.30
2023-11-18T18:46:23.103Z,8.20
2023-11-18T18:49:28.653Z,8.97
2023-11-18T18:52:32.389Z,6.80
2023-11-18T18:55:37.212Z,7.80
2023-11-18T18:58:41.057Z,7.10
2023-11-18T19:01:46.115Z,8.47
2023-11-18T19:04:51.396Z,6.90
2023-11-18T19:07:57.127Z,8.03
2023-11-18T19:11:01.159Z,8.53
2023-11-18T19:14:05.038Z,7.27
2023-11-18T19:17:08.820Z,7.93
2023-11-18T19:20:15.814Z,7.43
2023-11-18T19:23:19.916Z,6.90
2023-11-18T19:26:23.542Z,7.07
2023-11-18T19:29:27.396Z,7.50
2023-11-18T19:32:31.267Z,8.27
2023-11-18T19:35:36.376Z,7.67
2023-11-18T19:38:40.131Z,9.23
2023-11-18T19:41:43.896Z,8.33
2023-11-18T19:44:48.274Z,8.33
2023-11-18T19:47:52.647Z,10.97
2023-11-18T19:50:57.659Z,7.77
2023-11-18T19:54:01.337Z,7.70
2023-11-18T19:57:05.168Z,8.00
2023-11-18T20:00:13.036Z,7.70
2023-11-18T20:03:16.903Z,8.60
2023-11-18T20:06:22.067Z,7.47
2023-11-18T20:09:26.767Z,11.73
2023-11-18T20:12:33.208Z,8.00
2023-11-18T20:15:38.598Z,8.37
2023-11-18T20:18:42.326Z,8.30
2023-11-18T20:21:47.478Z,7.80
2023-11-18T20:24:51.131Z,7.67
2023-11-18T20:27:55.678Z,7.53
2023-11-18T20:30:59.363Z,8.10
2023-11-18T20:34:03.958Z,8.13
2023-11-18T20:37:08.941Z,7.30
2023-11-18T20:40:15.018Z,6.93
2023-11-18T20:43:18.725Z,7.03
2023-11-18T20:46:22.407Z,6.97
2023-11-18T20:49:26.223Z,7.33
2023-11-18T20:52:33.380Z,7.00
2023-11-18T20:55:37.081Z,6.80
2023-11-18T20:58:42.542Z,7.10
2023-11-18T21:01:47.380Z,7.23
2023-11-18T21:04:51.208Z,7.17
2023-11-18T21:07:56.553Z,6.53
2023-11-18T21:11:00.411Z,6.17
2023-11-18T21:14:05.534Z,6.07
2023-11-18T21:17:12.572Z,6.00
2023-11-18T21:20:16.474Z,5.43
2023-11-18T21:23:21.578Z,5.20
2023-11-18T21:26:26.396Z,5.73
2023-11-18T21:29:30.513Z,4.93
2023-11-18T21:32:34.229Z,5.57
2023-11-18T21:35:37.893Z,6.33
2023-11-18T21:38:43.094Z,5.13
2023-11-18T21:41:46.927Z,5.43
2023-11-18T21:44:50.896Z,5.40
2023-11-18T21:47:56.305Z,5.57
2023-11-18T21:51:00.238Z,3.73
2023-11-18T21:54:05.954Z,4.63
2023-11-18T21:57:10.646Z,3.80
2023-11-18T22:00:18.153Z,3.60
2023-11-18T22:03:22.069Z,3.20
2023-11-18T22:06:25.805Z,3.33
2023-11-18T22:09:30.961Z,3.83
2023-11-18T22:12:34.865Z,3.33
2023-11-18T22:15:38.627Z,3.17
2023-11-18T22:18:42.389Z,3.70
2023-11-18T22:21:46.536Z,2.80
2023-11-18T22:24:53.171Z,2.93
2023-11-18T22:27:56.876Z,3.23
2023-11-18T22:31:00.726Z,2.77
2023-11-18T22:34:04.781Z,2.97
2023-11-18T22:37:08.412Z,2.20
2023-11-18T22:40:17.428Z,1.90
2023-11-18T22:43:22.430Z,2.47
2023-11-18T22:46:26.169Z,3.07
2023-11-18T22:49:30.048Z,2.70
2023-11-18T22:52:33.643Z,2.70
2023-11-18T22:55:39.613Z,2.87
2023-11-18T22:58:43.387Z,2.73
2023-11-18T23:01:47.353Z,2.67
2023-11-18T23:04:50.963Z,2.70
2023-11-18T23:07:57.793Z,2.53
2023-11-18T23:11:03.102Z,2.67
2023-11-18T23:14:06.962Z,2.30
2023-11-18T23:17:10.644Z,3.47
2023-11-18T23:20:14.554Z,2.37
2023-11-18T23:23:19.234Z,2.50
2023-11-18T23:26:24.466Z,3.03
2023-11-18T23:29:28.212Z,2.60
2023-11-18T23:32:31.824Z,2.80
2023-11-18T23:35:36.241Z,2.40
2023-11-18T23:38:40.183Z,2.23
2023-11-18T23:41:45.208Z,2.27
2023-11-18T23:44:48.955Z,2.07
2023-11-18T23:47:52.990Z,1.90
2023-11-18T23:50:57.031Z,2.47
2023-11-18T23:54:00.665Z,2.33
2023-11-18T23:57:06.283Z,2.30
